Strona główna
METAR-TAF:

METAR-TAF

Lotnisko :

Port lotniczy Pekanbaru

Pekanbaru, Indonezja

Szerokość geograficzna: 00-28N, Długość geograficzna: 101-27E, wysokość: 31 m

Aktualna obserwacja pogody

Raport powstał 43 minut temu, godzina 16:00 UTC
Cisza
Temperatura 26°C
Wilgotność 94%
Ciśnienie 1010 hPa
Widzialność: 8000 m
Mało chmury na wysokości 1500 ft

METAR: WIBB 111600Z 00000KT 8000 FEW015 26/25 Q1010

czas: 23:43 (16:43 UTC)


TAF: brakujący

Obserwacja i prognoza pogody dla ponad 4000 lotnisk (raport METAR i TAF).

Dostępne stacje oznaczono żółtymi i czerwonymi punktami na mapie.

Najedź kursorem aby zobaczyć nazwę stacji.

Kliknij aby zobaczyć obserwacje i prognozy pogody.

Aby zmienić mapę: kliknij na zielony przycisk z czarnym krzyżykiem, aby powiększyć; na zielony przycisk z myślnikiem, aby pomniejszyć; na zielone strzałki, aby przejść do map sąsiednich.


METAR-TAF: